Time;durP1;ratioP1;P1;durP2;ratioP2;P2;SDS_P1;SDS_P2;PMS_P1;PMS_P2;Temp;Humidity;BMP_temperature;BMP_pressure;BME280_temperature;BME280_humidity;BME280_pressure;Samples;Min_cycle;Max_cycle;Signal;HPM_P1;HPM_P2
2023/03/31 00:01:10;;;;;;;24.75;4.95;;;10.20;92.50;;;;;;5041257;28;20030;-48
2023/03/31 00:03:42;;;;;;;28.10;6.50;;;10.20;92.40;;;;;;5045647;28;20181;-45
2023/03/31 00:06:16;;;;;;;19.73;4.57;;;10.10;92.30;;;;;;5054446;28;20053;-45
2023/03/31 00:08:44;;;;;;;26.83;4.53;;;10.20;92.30;;;;;;5046981;28;20037;-45
2023/03/31 00:11:10;;;;;;;22.75;5.60;;;10.10;92.20;;;;;;5049220;28;20017;-46
2023/03/31 00:13:38;;;;;;;20.83;4.63;;;10.10;92.20;;;;;;5053744;28;20044;-48
2023/03/31 00:16:07;;;;;;;20.48;4.80;;;10.10;92.20;;;;;;5053136;28;20461;-44
2023/03/31 00:18:33;;;;;;;20.65;6.53;;;10.10;92.10;;;;;;5036358;28;20041;-44
2023/03/31 00:21:32;;;;;;;29.60;5.35;;;10.10;92.00;;;;;;5032795;28;20038;-47
2023/03/31 00:24:03;;;;;;;18.45;4.05;;;10.10;92.00;;;;;;5037649;28;20097;-47
2023/03/31 00:26:33;;;;;;;23.70;5.40;;;10.10;92.00;;;;;;5043593;28;20069;-46
2023/03/31 00:29:10;;;;;;;23.50;5.07;;;10.00;92.00;;;;;;5053297;28;20045;-43
2023/03/31 00:31:38;;;;;;;22.27;4.32;;;10.00;91.90;;;;;;5038530;28;20068;-49
2023/03/31 00:34:06;;;;;;;21.42;3.97;;;10.00;91.90;;;;;;5054200;28;20029;-45
2023/03/31 00:36:35;;;;;;;31.40;4.63;;;10.00;91.90;;;;;;5051761;28;20099;-47
2023/03/31 00:39:08;;;;;;;25.60;5.82;;;9.90;92.00;;;;;;5049303;28;20028;-48
2023/03/31 00:41:45;;;;;;;25.20;4.88;;;9.90;92.00;;;;;;5032893;28;20059;-44
2023/03/31 00:44:32;;;;;;;30.10;4.93;;;9.90;92.10;;;;;;5031773;28;20057;-46
2023/03/31 00:47:19;;;;;;;21.88;5.57;;;9.90;92.10;;;;;;5033020;28;20090;-46
2023/03/31 00:49:53;;;;;;;19.20;4.68;;;9.90;92.10;;;;;;5033857;28;20030;-43
2023/03/31 00:52:49;;;;;;;27.85;5.45;;;9.90;92.00;;;;;;5033635;28;20039;-43
2023/03/31 00:55:20;;;;;;;19.50;4.30;;;9.90;92.00;;;;;;5032896;28;20030;-43
2023/03/31 00:57:52;;;;;;;23.67;4.75;;;9.80;92.00;;;;;;5045251;28;20028;-43
2023/03/31 01:00:22;;;;;;;26.20;4.80;;;9.80;92.00;;;;;;5048812;28;20875;-44
2023/03/31 01:02:59;;;;;;;20.85;5.10;;;9.80;91.90;;;;;;5033581;28;20025;-44
2023/03/31 01:05:56;;;;;;;18.30;4.10;;;9.70;91.90;;;;;;5090629;27;20391;-44
2023/03/31 01:08:26;;;;;;;20.67;4.68;;;9.70;92.00;;;;;;5087004;28;20469;-44
2023/03/31 01:11:00;;;;;;;25.05;4.95;;;9.70;92.10;;;;;;5088961;28;20028;-45
2023/03/31 01:13:30;;;;;;;30.73;5.57;;;9.70;92.20;;;;;;5085232;28;20033;-44
2023/03/31 01:15:58;;;;;;;20.70;4.50;;;9.70;92.20;;;;;;5088440;28;20032;-44
2023/03/31 01:18:24;;;;;;;21.10;5.18;;;9.70;92.10;;;;;;5069510;28;20384;-44
2023/03/31 01:21:24;;;;;;;23.58;5.25;;;9.70;92.20;;;;;;5080264;28;20383;-45
2023/03/31 01:24:05;;;;;;;27.95;5.93;;;9.70;92.30;;;;;;5084568;28;20107;-45
2023/03/31 01:27:05;;;;;;;26.20;6.45;;;9.70;92.30;;;;;;5069066;28;20032;-44
2023/03/31 01:30:02;;;;;;;23.30;6.72;;;9.70;92.30;;;;;;5060546;28;20540;-43
2023/03/31 01:32:59;;;;;;;25.83;6.70;;;9.70;92.20;;;;;;5074733;28;20070;-47
2023/03/31 01:36:05;;;;;;;25.38;5.10;;;9.70;92.20;;;;;;5073188;28;20036;-44
2023/03/31 01:39:13;;;;;;;35.25;7.05;;;9.60;92.20;;;;;;5089500;28;20020;-44
2023/03/31 01:42:00;;;;;;;24.10;6.30;;;9.60;92.20;;;;;;5083807;28;20427;-44
2023/03/31 01:44:29;;;;;;;23.08;6.13;;;9.50;92.20;;;;;;5069269;28;20102;-43
2023/03/31 01:47:06;;;;;;;24.90;5.03;;;9.50;92.30;;;;;;5069010;28;20024;-44
2023/03/31 01:50:02;;;;;;;28.85;4.88;;;9.50;92.20;;;;;;5068331;28;20093;-45
2023/03/31 01:53:07;;;;;;;22.90;5.00;;;9.40;92.20;;;;;;5067550;28;20473;-45
2023/03/31 01:56:09;;;;;;;24.65;5.15;;;9.40;92.20;;;;;;5074640;28;20055;-44
2023/03/31 01:58:52;;;;;;;22.48;6.45;;;9.40;92.10;;;;;;5089163;28;20404;-45
2023/03/31 02:01:47;;;;;;;24.15;5.78;;;9.30;92.20;;;;;;5088931;28;20025;-44
2023/03/31 02:04:55;;;;;;;38.53;6.93;;;9.30;92.20;;;;;;5076841;28;20045;-44
2023/03/31 02:07:30;;;;;;;21.58;5.38;;;9.20;92.30;;;;;;5067642;28;20362;-45
2023/03/31 02:10:03;;;;;;;27.15;5.75;;;9.20;92.30;;;;;;5079978;28;20035;-45
2023/03/31 02:12:31;;;;;;;22.20;5.00;;;9.10;92.30;;;;;;5075464;28;20439;-44
2023/03/31 02:15:13;;;;;;;25.10;4.95;;;9.10;92.30;;;;;;5064855;28;20099;-43
2023/03/31 02:17:44;;;;;;;16.95;4.45;;;9.00;92.40;;;;;;5054562;28;20037;-46
2023/03/31 02:20:26;;;;;;;21.35;4.72;;;9.00;92.40;;;;;;5054507;28;20114;-45
2023/03/31 02:22:59;;;;;;;25.30;5.28;;;9.00;92.40;;;;;;5054178;28;20112;-48
2023/03/31 02:25:37;;;;;;;26.35;5.28;;;8.90;92.40;;;;;;5054168;28;20489;-48
2023/03/31 02:28:10;;;;;;;21.83;4.70;;;8.90;92.40;;;;;;5037393;28;20032;-45
2023/03/31 02:30:52;;;;;;;29.42;5.32;;;8.80;92.50;;;;;;5054301;28;20438;-44
2023/03/31 02:33:20;;;;;;;18.35;4.50;;;8.80;92.50;;;;;;5054184;28;20040;-45
2023/03/31 02:35:50;;;;;;;20.55;5.78;;;8.70;92.50;;;;;;5059794;28;20096;-44
2023/03/31 02:38:17;;;;;;;20.45;4.50;;;8.70;92.50;;;;;;5069105;28;20447;-43
2023/03/31 02:40:45;;;;;;;27.20;5.50;;;8.70;92.50;;;;;;5057831;28;20069;-44
2023/03/31 02:43:12;;;;;;;19.67;4.97;;;8.60;92.60;;;;;;5071431;28;20099;-48
2023/03/31 02:46:04;;;;;;;25.73;5.28;;;8.60;92.60;;;;;;5054835;28;20430;-44
2023/03/31 02:48:40;;;;;;;24.38;4.65;;;8.60;92.70;;;;;;5054770;28;20033;-43
2023/03/31 02:51:26;;;;;;;22.65;6.03;;;8.60;92.70;;;;;;5037140;28;20132;-43
2023/03/31 02:54:48;;;;;;;22.05;4.35;;;8.60;93.00;;;;;;5054649;28;20037;-44
2023/03/31 02:57:43;;;;;;;26.83;5.60;;;8.70;93.10;;;;;;5013500;28;20053;-43
2023/03/31 03:00:33;;;;;;;25.33;5.20;;;8.70;93.20;;;;;;5054521;28;20017;-44
2023/03/31 03:03:37;;;;;;;32.08;5.88;;;8.80;93.30;;;;;;5074268;28;20096;-44
2023/03/31 03:06:36;;;;;;;19.23;4.45;;;8.90;93.30;;;;;;5059479;28;20047;-45
2023/03/31 03:09:28;;;;;;;22.65;6.13;;;8.90;93.30;;;;;;5054350;28;20155;-44
2023/03/31 03:12:17;;;;;;;28.83;7.72;;;8.90;93.30;;;;;;5054113;28;20037;-44
2023/03/31 03:15:22;;;;;;;26.52;4.72;;;9.00;93.30;;;;;;5054155;28;20029;-43
2023/03/31 03:17:50;;;;;;;29.35;5.65;;;9.00;93.20;;;;;;5059486;28;20025;-48
2023/03/31 03:20:19;;;;;;;24.40;5.20;;;9.00;93.30;;;;;;5073205;28;20055;-44
2023/03/31 03:22:46;;;;;;;26.13;5.68;;;9.00;93.30;;;;;;5073080;28;20044;-44
2023/03/31 03:25:17;;;;;;;21.92;5.68;;;9.10;93.40;;;;;;5056611;28;20147;-48
2023/03/31 03:27:47;;;;;;;22.67;4.07;;;9.10;93.40;;;;;;5035815;28;20028;-44
2023/03/31 03:30:14;;;;;;;24.50;6.72;;;9.20;93.40;;;;;;5068196;28;20021;-44
2023/03/31 03:32:40;;;;;;;20.58;3.92;;;9.20;93.30;;;;;;5072377;28;20025;-44
2023/03/31 03:35:10;;;;;;;20.88;3.97;;;9.20;93.30;;;;;;5072760;28;20031;-44
2023/03/31 03:37:37;;;;;;;25.10;5.45;;;9.30;93.30;;;;;;5072448;28;20029;-44
2023/03/31 03:40:06;;;;;;;28.65;5.75;;;9.30;93.30;;;;;;5072752;28;20037;-44
2023/03/31 03:42:35;;;;;;;21.77;6.20;;;9.30;93.30;;;;;;5054694;28;20502;-45
2023/03/31 03:45:01;;;;;;;15.25;4.95;;;9.40;93.30;;;;;;5053741;28;20040;-44
2023/03/31 03:47:28;;;;;;;23.80;5.35;;;9.40;93.20;;;;;;5052466;28;20036;-49
2023/03/31 03:49:55;;;;;;;19.05;5.72;;;9.40;93.20;;;;;;5053650;28;20029;-44
2023/03/31 03:52:22;;;;;;;19.60;5.63;;;9.40;93.20;;;;;;5056877;28;20111;-45
2023/03/31 03:54:48;;;;;;;22.33;5.28;;;9.40;93.20;;;;;;5060562;28;20437;-46
2023/03/31 03:57:16;;;;;;;19.98;4.65;;;9.40;93.20;;;;;;5073869;28;20054;-44
2023/03/31 03:59:44;;;;;;;23.23;4.63;;;9.40;93.20;;;;;;5062685;28;20098;-46
2023/03/31 04:02:10;;;;;;;25.63;5.07;;;9.40;93.20;;;;;;5052184;28;20104;-44
2023/03/31 04:04:38;;;;;;;21.92;4.65;;;9.50;93.20;;;;;;5059354;28;20424;-45
2023/03/31 04:07:05;;;;;;;18.48;5.50;;;9.50;93.10;;;;;;5073005;28;20026;-47
2023/03/31 04:09:32;;;;;;;22.75;5.80;;;9.50;93.10;;;;;;5058015;28;20031;-46
2023/03/31 04:12:03;;;;;;;18.85;4.88;;;9.50;93.10;;;;;;5068797;28;20327;-47
2023/03/31 04:14:30;;;;;;;13.85;4.72;;;9.50;93.00;;;;;;5060370;28;20086;-44
2023/03/31 04:16:58;;;;;;;17.52;4.20;;;9.60;93.00;;;;;;5071790;28;20051;-45
2023/03/31 04:19:27;;;;;;;17.83;5.07;;;9.50;92.90;;;;;;5058429;28;20033;-47
2023/03/31 04:21:57;;;;;;;16.70;4.70;;;9.50;92.90;;;;;;5067021;28;20048;-45
2023/03/31 04:24:31;;;;;;;24.45;5.60;;;9.50;92.80;;;;;;5070473;28;20324;-44
2023/03/31 04:26:59;;;;;;;22.23;4.57;;;9.50;92.80;;;;;;5067163;28;20112;-46
2023/03/31 04:29:26;;;;;;;18.63;4.40;;;9.50;92.80;;;;;;5064909;28;20040;-44
2023/03/31 04:31:57;;;;;;;25.55;5.38;;;9.40;92.90;;;;;;5069628;28;20019;-42
2023/03/31 04:34:35;;;;;;;12.50;4.43;;;9.40;92.80;;;;;;5065066;28;20442;-43
2023/03/31 04:37:04;;;;;;;20.13;4.82;;;9.40;92.90;;;;;;5071253;28;20380;-45
2023/03/31 04:39:31;;;;;;;14.93;4.18;;;9.40;92.90;;;;;;5064435;28;20043;-43
2023/03/31 04:42:02;;;;;;;19.05;5.05;;;9.40;92.90;;;;;;5067232;28;20051;-44
2023/03/31 04:44:28;;;;;;;20.40;5.07;;;9.40;93.00;;;;;;5064541;28;20035;-45
2023/03/31 04:47:01;;;;;;;18.45;5.25;;;9.40;93.00;;;;;;5054351;28;20028;-44
2023/03/31 04:49:28;;;;;;;19.58;5.55;;;9.40;93.00;;;;;;5054727;28;20033;-45
2023/03/31 04:51:54;;;;;;;18.42;5.63;;;9.40;93.10;;;;;;5058059;28;20021;-43
2023/03/31 04:54:21;;;;;;;15.18;5.43;;;9.40;93.10;;;;;;5070261;28;20362;-44
2023/03/31 04:56:48;;;;;;;19.50;6.05;;;9.40;93.20;;;;;;5067579;28;20057;-43
2023/03/31 04:59:16;;;;;;;18.65;6.13;;;9.40;93.20;;;;;;5070344;28;20040;-43
2023/03/31 05:01:43;;;;;;;17.55;5.72;;;9.40;93.20;;;;;;5065607;28;20048;-44
2023/03/31 05:04:12;;;;;;;18.63;5.97;;;9.40;93.20;;;;;;5064467;28;20044;-45
2023/03/31 05:06:39;;;;;;;14.73;5.28;;;9.40;93.30;;;;;;5067153;28;20067;-43
2023/03/31 05:09:09;;;;;;;19.25;6.18;;;9.40;93.30;;;;;;5067159;28;20028;-43
2023/03/31 05:11:37;;;;;;;19.02;6.15;;;9.40;93.30;;;;;;5071513;28;20029;-43
2023/03/31 05:14:03;;;;;;;15.35;5.72;;;9.40;93.30;;;;;;5071399;28;20044;-43
2023/03/31 05:16:29;;;;;;;17.15;5.95;;;9.40;93.30;;;;;;5068064;28;20078;-43
2023/03/31 05:18:54;;;;;;;17.15;5.35;;;9.40;93.30;;;;;;5072467;28;20032;-43
2023/03/31 05:21:22;;;;;;;17.58;6.70;;;9.40;93.20;;;;;;5072006;28;20043;-45
2023/03/31 05:23:55;;;;;;;18.55;5.70;;;9.30;93.20;;;;;;5072363;28;20058;-45
2023/03/31 05:26:24;;;;;;;19.23;5.85;;;9.40;93.20;;;;;;5069330;28;20407;-43
2023/03/31 05:28:50;;;;;;;16.45;5.47;;;9.40;93.30;;;;;;5067661;28;20377;-45
2023/03/31 05:31:20;;;;;;;18.27;6.00;;;9.40;93.30;;;;;;5063191;28;20020;-43
2023/03/31 05:33:47;;;;;;;19.10;6.30;;;9.40;93.30;;;;;;5063784;28;20029;-45
2023/03/31 05:36:17;;;;;;;14.55;4.68;;;9.40;93.30;;;;;;5051841;28;20037;-44
2023/03/31 05:38:44;;;;;;;;;;;9.40;93.20;;;;;;5068898;28;20037;-44
2023/03/31 05:41:12;;;;;;;19.92;6.82;;;9.40;93.30;;;;;;5074732;28;20038;-44
2023/03/31 05:43:42;;;;;;;16.17;4.85;;;9.40;93.30;;;;;;5070075;28;20460;-44
2023/03/31 05:46:12;;;;;;;13.15;4.95;;;9.50;93.30;;;;;;5052600;28;20025;-43
2023/03/31 05:48:40;;;;;;;19.08;4.88;;;9.50;93.20;;;;;;5051448;28;20025;-47
2023/03/31 05:51:05;;;;;;;13.18;4.60;;;9.60;93.20;;;;;;5053321;28;20106;-43
2023/03/31 05:53:32;;;;;;;16.35;5.40;;;9.60;93.10;;;;;;5064235;28;20714;-44
2023/03/31 05:56:01;;;;;;;14.23;5.07;;;9.70;93.00;;;;;;5066922;28;20465;-44
2023/03/31 05:58:28;;;;;;;12.80;4.20;;;9.70;92.80;;;;;;5064701;28;20040;-45
2023/03/31 06:01:10;;;;;;;9.85;3.70;;;9.70;92.70;;;;;;5074351;28;20242;-43
2023/03/31 06:03:42;;;;;;;17.42;5.90;;;9.70;92.60;;;;;;5072881;28;20438;-43
2023/03/31 06:06:12;;;;;;;11.40;3.95;;;9.80;92.50;;;;;;5062986;28;20449;-44
2023/03/31 06:08:38;;;;;;;15.55;4.97;;;9.80;92.30;;;;;;5068324;28;20033;-43
2023/03/31 06:11:15;;;;;;;13.40;4.50;;;9.90;92.30;;;;;;5072495;28;20485;-44
2023/03/31 06:13:46;;;;;;;13.00;4.78;;;9.90;92.20;;;;;;5071146;28;20119;-43
2023/03/31 06:16:16;;;;;;;12.10;3.90;;;9.90;92.20;;;;;;5073695;28;20094;-44
2023/03/31 06:18:44;;;;;;;12.77;4.70;;;9.90;92.10;;;;;;5073047;28;20028;-43
2023/03/31 06:21:16;;;;;;;13.13;6.05;;;10.00;92.10;;;;;;5073613;28;20473;-44
2023/03/31 06:23:44;;;;;;;17.55;5.28;;;9.90;92.10;;;;;;5071757;28;20028;-44
2023/03/31 06:26:12;;;;;;;13.25;4.32;;;9.90;92.00;;;;;;5073644;28;20028;-45
2023/03/31 06:28:40;;;;;;;13.38;4.75;;;9.90;92.00;;;;;;5069994;28;20031;-46
2023/03/31 06:31:11;;;;;;;13.27;4.20;;;10.00;92.00;;;;;;5069486;28;20056;-44
2023/03/31 06:33:39;;;;;;;10.10;4.65;;;10.00;91.90;;;;;;5071357;28;20072;-44
2023/03/31 06:36:08;;;;;;;13.63;4.93;;;10.00;91.90;;;;;;5052341;28;20119;-47
2023/03/31 06:38:45;;;;;;;11.50;4.28;;;10.00;92.00;;;;;;5068568;28;20036;-44
2023/03/31 06:41:13;;;;;;;11.80;3.95;;;10.00;92.00;;;;;;5069336;28;20051;-59
2023/03/31 06:43:41;;;;;;;11.02;4.10;;;10.00;92.10;;;;;;5066994;28;20028;-61
2023/03/31 06:46:08;;;;;;;9.77;4.07;;;9.90;92.20;;;;;;5056352;28;20135;-60
2023/03/31 06:48:36;;;;;;;13.35;4.45;;;9.90;92.30;;;;;;5073467;28;20793;-60
2023/03/31 06:51:04;;;;;;;11.98;4.32;;;9.90;92.40;;;;;;5069986;28;20031;-59
2023/03/31 06:53:32;;;;;;;12.25;4.75;;;9.90;92.60;;;;;;5060698;28;20017;-60
2023/03/31 06:56:02;;;;;;;15.82;5.72;;;9.90;92.80;;;;;;5073970;28;20055;-60
2023/03/31 06:58:28;;;;;;;11.73;4.65;;;9.90;93.00;;;;;;5066286;28;20029;-59
2023/03/31 07:00:53;;;;;;;12.70;5.32;;;9.90;93.10;;;;;;5067397;28;20386;-58
2023/03/31 07:03:23;;;;;;;15.07;5.45;;;9.90;93.20;;;;;;5064585;28;20035;-60
2023/03/31 07:06:02;;;;;;;11.15;5.28;;;9.90;93.30;;;;;;5073126;28;20465;-59
2023/03/31 07:08:28;;;;;;;11.55;5.88;;;9.90;93.30;;;;;;5068284;28;20044;-59
2023/03/31 07:11:15;;;;;;;11.55;5.13;;;9.90;93.40;;;;;;5066666;28;20032;-60
2023/03/31 07:13:42;;;;;;;15.27;5.22;;;9.90;93.50;;;;;;5057460;28;20358;-60
2023/03/31 07:16:09;;;;;;;10.80;4.97;;;9.90;93.60;;;;;;5070777;28;20031;-60
2023/03/31 07:18:36;;;;;;;14.18;5.30;;;9.90;93.60;;;;;;5073466;28;20032;-60
2023/03/31 07:21:06;;;;;;;12.82;5.60;;;9.90;93.70;;;;;;5071703;28;20090;-60
2023/03/31 07:23:43;;;;;;;11.27;5.50;;;9.90;93.70;;;;;;5063190;28;20040;-59
2023/03/31 07:26:11;;;;;;;8.63;4.60;;;9.90;93.80;;;;;;5073103;28;20013;-60
2023/03/31 07:28:38;;;;;;;8.63;5.10;;;10.00;93.90;;;;;;5066826;28;20035;-60
2023/03/31 07:31:11;;;;;;;12.15;5.43;;;10.00;93.80;;;;;;5072703;28;20567;-61
2023/03/31 07:33:48;;;;;;;9.00;5.45;;;10.00;94.00;;;;;;5055905;28;20036;-61
2023/03/31 07:36:21;;;;;;;14.38;6.40;;;10.00;94.00;;;;;;5060502;28;20489;-61
2023/03/31 07:38:48;;;;;;;10.57;6.43;;;10.10;94.00;;;;;;5053637;28;20092;-60
2023/03/31 07:41:20;;;;;;;10.98;6.32;;;10.10;94.10;;;;;;5053836;28;20116;-60
2023/03/31 07:43:48;;;;;;;11.13;6.05;;;10.20;94.00;;;;;;5052625;28;20090;-60
2023/03/31 07:46:20;;;;;;;11.65;6.22;;;10.20;94.00;;;;;;5052435;28;20675;-60
2023/03/31 07:48:46;;;;;;;11.32;6.50;;;10.30;94.00;;;;;;5052882;28;20048;-58
2023/03/31 07:51:26;;;;;;;9.00;6.00;;;10.20;94.00;;;;;;5070946;28;20434;-60
2023/03/31 07:53:54;;;;;;;8.30;6.93;;;10.20;94.00;;;;;;5071125;28;20032;-59
2023/03/31 07:56:26;;;;;;;12.07;6.15;;;10.30;94.10;;;;;;5055864;28;20033;-59
2023/03/31 07:58:53;;;;;;;12.77;6.20;;;10.40;94.10;;;;;;5068513;28;20029;-56
2023/03/31 08:01:20;;;;;;;8.10;5.85;;;10.40;94.10;;;;;;5053670;28;20029;-57
2023/03/31 08:03:54;;;;;;;8.55;5.30;;;10.50;94.00;;;;;;5052600;28;20388;-57
2023/03/31 08:06:22;;;;;;;6.70;5.22;;;10.50;93.90;;;;;;5053113;28;20032;-56
2023/03/31 08:08:49;;;;;;;8.23;5.68;;;10.50;93.80;;;;;;5052124;28;20032;-55
2023/03/31 08:11:17;;;;;;;8.32;5.07;;;10.60;93.80;;;;;;5051666;28;20037;-54
2023/03/31 08:13:44;;;;;;;10.15;5.40;;;10.70;93.80;;;;;;5051233;28;20354;-53
2023/03/31 08:16:12;;;;;;;11.20;6.15;;;10.90;93.90;;;;;;5052189;28;20060;-47
2023/03/31 08:18:39;;;;;;;8.07;5.68;;;11.00;93.80;;;;;;5052615;28;20037;-47
2023/03/31 08:21:11;;;;;;;8.50;5.03;;;11.10;93.70;;;;;;5072954;28;20029;-47
2023/03/31 08:23:38;;;;;;;10.65;5.43;;;11.10;93.30;;;;;;5072995;28;20387;-48
2023/03/31 08:26:23;;;;;;;8.75;5.18;;;11.10;93.10;;;;;;5072593;28;20086;-47
2023/03/31 08:28:54;;;;;;;8.55;5.15;;;11.10;92.90;;;;;;5052189;28;20029;-51
2023/03/31 08:31:22;;;;;;;7.05;4.38;;;11.00;92.60;;;;;;5051442;28;20029;-55
2023/03/31 08:33:50;;;;;;;8.80;4.65;;;11.10;92.80;;;;;;5064551;28;20029;-54
2023/03/31 08:36:18;;;;;;;7.00;4.47;;;11.20;92.80;;;;;;5069829;28;20024;-53
2023/03/31 08:38:46;;;;;;;12.70;4.30;;;11.20;92.70;;;;;;5070445;28;20043;-54
2023/03/31 08:41:52;;;;;;;7.45;4.47;;;11.40;92.70;;;;;;5070778;28;20032;-56
2023/03/31 08:44:39;;;;;;;8.68;4.72;;;11.50;92.50;;;;;;5071213;28;20062;-54
2023/03/31 08:47:23;;;;;;;7.57;3.63;;;11.60;92.50;;;;;;5071815;28;20086;-53
2023/03/31 08:49:58;;;;;;;8.73;5.53;;;11.70;92.30;;;;;;5051814;28;20040;-54
2023/03/31 08:52:42;;;;;;;7.25;4.00;;;11.80;92.00;;;;;;5040176;28;20340;-51
2023/03/31 08:55:26;;;;;;;7.57;3.50;;;12.00;92.00;;;;;;5070951;28;20111;-54
2023/03/31 08:58:20;;;;;;;8.20;4.07;;;12.00;91.60;;;;;;5064219;28;20454;-53
2023/03/31 09:01:20;;;;;;;7.03;4.00;;;12.10;90.90;;;;;;5063358;28;20036;-47
2023/03/31 09:04:17;;;;;;;7.75;3.80;;;12.10;91.00;;;;;;5069133;28;20048;-50
2023/03/31 09:06:54;;;;;;;6.93;3.63;;;12.20;90.50;;;;;;5067485;28;20025;-49
2023/03/31 09:10:00;;;;;;;8.95;3.55;;;12.20;90.30;;;;;;5071918;28;20024;-48
2023/03/31 09:12:52;;;;;;;7.38;3.90;;;12.30;90.20;;;;;;5071649;28;20585;-47
2023/03/31 09:15:28;;;;;;;7.20;3.58;;;12.30;89.90;;;;;;5050763;28;20087;-49
2023/03/31 09:17:58;;;;;;;7.20;3.90;;;12.30;90.20;;;;;;5051939;28;20167;-47
2023/03/31 09:20:42;;;;;;;10.45;3.78;;;12.30;89.90;;;;;;5067384;28;20037;-47
2023/03/31 09:23:45;;;;;;;7.80;3.85;;;12.40;90.10;;;;;;5066618;28;20031;-48
2023/03/31 09:26:38;;;;;;;6.70;3.63;;;12.40;89.80;;;;;;5069830;28;20043;-53
2023/03/31 09:29:13;;;;;;;8.07;4.43;;;12.30;88.80;;;;;;5065588;28;20040;-57
2023/03/31 09:31:43;;;;;;;8.00;4.40;;;12.20;89.00;;;;;;5054876;28;20171;-57
2023/03/31 09:34:32;;;;;;;6.63;4.25;;;12.10;89.00;;;;;;5072910;28;20024;-59
2023/03/31 09:36:58;;;;;;;6.45;4.90;;;12.10;89.80;;;;;;5067807;28;20060;-59
2023/03/31 09:39:25;;;;;;;8.43;4.20;;;12.30;89.80;;;;;;5053868;28;20067;-60
2023/03/31 09:41:56;;;;;;;8.82;5.22;;;12.20;89.00;;;;;;5087668;28;20115;-60
2023/03/31 09:44:51;;;;;;;8.75;5.63;;;12.40;89.80;;;;;;5075305;28;20076;-61
2023/03/31 09:47:45;;;;;;;7.90;4.68;;;12.50;89.80;;;;;;5040473;28;20047;-59
2023/03/31 09:50:16;;;;;;;7.10;4.35;;;12.70;89.50;;;;;;5055386;28;20450;-59
2023/03/31 09:52:49;;;;;;;9.98;5.78;;;12.60;88.80;;;;;;5062565;28;20323;-61
2023/03/31 09:55:41;;;;;;;6.72;4.78;;;12.50;89.00;;;;;;5057551;28;20543;-61
2023/03/31 09:58:15;;;;;;;10.55;5.88;;;12.40;89.10;;;;;;5066815;28;20036;-60
2023/03/31 10:01:02;;;;;;;7.28;5.65;;;12.10;88.60;;;;;;5069271;28;20473;-60
2023/03/31 10:04:02;;;;;;;8.23;6.28;;;12.10;89.70;;;;;;5078276;28;20040;-60
2023/03/31 10:06:41;;;;;;;8.65;5.93;;;12.20;90.00;;;;;;5011168;28;20164;-60
2023/03/31 10:09:10;;;;;;;12.45;8.57;;;12.30;90.10;;;;;;5017755;28;20034;-61
2023/03/31 10:11:38;;;;;;;10.95;6.95;;;12.40;90.00;;;;;;5033622;28;20096;-61
2023/03/31 10:14:15;;;;;;;10.48;7.70;;;12.40;90.20;;;;;;5034638;28;20036;-60
2023/03/31 10:17:09;;;;;;;8.00;6.43;;;12.40;89.80;;;;;;5033643;28;20036;-59
2023/03/31 10:19:45;;;;;;;10.05;7.30;;;12.30;89.90;;;;;;5016950;28;20045;-60
2023/03/31 10:22:26;;;;;;;10.18;7.50;;;12.20;89.80;;;;;;5020350;28;20128;-57
2023/03/31 10:25:03;;;;;;;8.85;7.28;;;12.10;90.00;;;;;;5033236;28;20041;-60
2023/03/31 10:27:32;;;;;;;10.48;7.40;;;11.90;89.80;;;;;;5014990;28;20045;-58
2023/03/31 10:30:04;;;;;;;10.40;7.60;;;11.80;90.40;;;;;;5016372;28;20029;-59
2023/03/31 10:32:33;;;;;;;11.68;8.18;;;11.80;90.60;;;;;;5010590;28;20499;-61
2023/03/31 10:35:11;;;;;;;11.30;8.52;;;11.80;90.70;;;;;;5032639;28;20124;-61
2023/03/31 10:37:40;;;;;;;8.82;7.93;;;11.70;90.80;;;;;;5030604;28;20079;-61
2023/03/31 10:40:20;;;;;;;9.90;7.35;;;11.60;90.80;;;;;;5027488;28;20350;-60
2023/03/31 10:43:15;;;;;;;10.95;8.63;;;11.50;91.20;;;;;;5025757;28;20022;-57
2023/03/31 10:45:55;;;;;;;11.43;9.30;;;11.40;91.40;;;;;;5020608;28;20038;-61
2023/03/31 10:48:28;;;;;;;13.43;9.70;;;11.40;91.80;;;;;;5033779;28;20123;-60
2023/03/31 10:51:19;;;;;;;12.48;11.18;;;11.40;92.10;;;;;;5033965;28;20552;-60
2023/03/31 10:53:51;;;;;;;13.88;11.05;;;11.50;92.20;;;;;;5018218;28;20037;-60
2023/03/31 10:56:22;;;;;;;12.75;11.45;;;11.50;92.30;;;;;;5023570;28;20037;-58
2023/03/31 10:58:59;;;;;;;13.30;11.73;;;11.50;92.30;;;;;;5030475;28;20021;-60
2023/03/31 11:01:46;;;;;;;14.20;11.48;;;11.50;92.30;;;;;;5033569;28;20033;-58
2023/03/31 11:04:42;;;;;;;11.98;10.63;;;11.40;92.30;;;;;;5035295;28;20079;-60
2023/03/31 11:07:38;;;;;;;13.95;10.75;;;11.40;92.20;;;;;;5070331;28;20040;-59
2023/03/31 11:10:23;;;;;;;13.38;11.82;;;11.40;92.40;;;;;;5073157;28;20031;-58
2023/03/31 11:13:25;;;;;;;14.40;11.82;;;11.40;92.50;;;;;;5067841;28;20029;-60
2023/03/31 11:16:19;;;;;;;14.35;11.43;;;11.30;92.50;;;;;;5057402;28;20064;-59
2023/03/31 11:18:54;;;;;;;12.75;11.48;;;11.20;92.80;;;;;;5064259;28;20079;-60
2023/03/31 11:21:38;;;;;;;12.35;11.05;;;11.20;92.90;;;;;;5072537;28;20044;-55
2023/03/31 11:24:15;;;;;;;14.23;12.73;;;11.20;93.10;;;;;;5071450;28;20077;-59
2023/03/31 11:27:20;;;;;;;15.20;12.82;;;11.20;93.20;;;;;;5073783;28;20043;-59
2023/03/31 11:30:05;;;;;;;15.68;12.52;;;11.20;93.20;;;;;;5060934;28;20040;-61
2023/03/31 11:33:13;;;;;;;14.82;12.18;;;11.20;93.40;;;;;;5072767;28;20338;-61
2023/03/31 11:36:10;;;;;;;13.77;12.48;;;11.30;93.50;;;;;;5061670;28;20179;-60
2023/03/31 11:39:13;;;;;;;14.63;11.77;;;11.40;93.70;;;;;;5072258;28;20043;-60
2023/03/31 11:41:45;;;;;;;15.85;11.13;;;11.50;93.60;;;;;;5069774;28;20024;-59
2023/03/31 11:44:20;;;;;;;14.85;11.63;;;11.60;93.70;;;;;;5053333;28;20029;-60
2023/03/31 11:47:14;;;;;;;13.40;10.98;;;11.80;93.70;;;;;;5070732;28;20074;-60
2023/03/31 11:49:47;;;;;;;13.90;11.73;;;11.90;93.60;;;;;;5071201;28;20032;-61
2023/03/31 11:52:33;;;;;;;14.45;10.95;;;12.00;93.30;;;;;;5068918;28;20089;-59
2023/03/31 11:55:30;;;;;;;13.00;10.43;;;12.00;93.00;;;;;;5071940;28;20150;-59
2023/03/31 11:58:18;;;;;;;10.73;9.63;;;12.10;93.00;;;;;;5071391;28;20036;-60
2023/03/31 12:00:51;;;;;;;10.68;9.55;;;12.00;92.70;;;;;;5067502;28;20094;-59
2023/03/31 12:03:22;;;;;;;10.23;9.10;;;12.00;92.40;;;;;;5051061;28;20593;-60
2023/03/31 12:05:54;;;;;;;11.40;9.40;;;11.90;92.60;;;;;;5062735;28;20849;-60
2023/03/31 12:08:42;;;;;;;10.40;9.23;;;12.00;92.60;;;;;;5061722;28;20060;-60
2023/03/31 12:11:45;;;;;;;11.05;9.85;;;12.00;92.50;;;;;;5056394;28;20095;-60
2023/03/31 12:14:39;;;;;;;11.68;9.77;;;11.90;92.30;;;;;;5067064;28;20024;-60
2023/03/31 12:17:25;;;;;;;14.32;10.07;;;11.90;92.30;;;;;;5064041;28;20036;-60
2023/03/31 12:19:59;;;;;;;9.35;8.45;;;11.90;92.40;;;;;;5050963;28;20033;-60
2023/03/31 12:22:46;;;;;;;9.10;8.15;;;12.00;92.50;;;;;;5052478;28;20029;-61
2023/03/31 12:25:21;;;;;;;11.82;9.23;;;12.10;92.60;;;;;;5051497;28;20444;-60
2023/03/31 12:27:50;;;;;;;10.40;8.50;;;12.10;92.40;;;;;;5052145;28;20021;-59
2023/03/31 12:30:41;;;;;;;11.57;9.02;;;12.20;92.70;;;;;;5064072;28;20048;-58
2023/03/31 12:33:30;;;;;;;9.20;8.10;;;12.40;92.50;;;;;;5059521;28;20032;-57
2023/03/31 12:36:21;;;;;;;12.25;8.38;;;12.40;92.60;;;;;;5063181;28;20641;-60
2023/03/31 12:39:18;;;;;;;11.23;9.23;;;12.40;92.00;;;;;;5054028;28;20028;-60
2023/03/31 12:42:22;;;;;;;10.10;7.57;;;12.40;91.70;;;;;;5055847;28;20029;-59
2023/03/31 12:45:26;;;;;;;10.57;7.88;;;12.40;91.80;;;;;;5051830;28;20048;-60
2023/03/31 12:48:17;;;;;;;8.13;6.90;;;12.40;91.80;;;;;;5052411;28;20021;-58
2023/03/31 12:50:51;;;;;;;8.30;6.47;;;12.30;91.50;;;;;;5070432;28;20124;-58
2023/03/31 12:53:56;;;;;;;6.05;5.38;;;12.30;91.70;;;;;;5059751;28;20032;-59
2023/03/31 12:56:23;;;;;;;6.88;4.78;;;12.30;91.80;;;;;;5068611;28;20036;-59
2023/03/31 12:58:51;;;;;;;6.72;4.88;;;12.30;91.60;;;;;;5069613;28;20048;-59
2023/03/31 13:01:23;;;;;;;6.10;4.20;;;12.30;91.70;;;;;;5060077;28;20028;-60
2023/03/31 13:04:12;;;;;;;10.20;5.55;;;12.30;91.50;;;;;;5066647;28;20458;-60
2023/03/31 13:06:37;;;;;;;6.30;4.22;;;12.20;91.30;;;;;;5069128;28;20039;-60
2023/03/31 13:09:32;;;;;;;6.65;4.88;;;12.20;91.40;;;;;;5068870;28;20032;-59
2023/03/31 13:12:26;;;;;;;8.15;5.82;;;12.30;91.70;;;;;;5063133;28;20047;-58
2023/03/31 13:14:58;;;;;;;8.15;6.07;;;12.20;91.30;;;;;;5061418;28;20469;-58
2023/03/31 13:17:38;;;;;;;8.10;5.50;;;12.30;91.50;;;;;;5071277;28;20048;-55
2023/03/31 13:20:29;;;;;;;7.90;5.88;;;12.40;91.60;;;;;;5069839;28;20534;-59
2023/03/31 13:23:20;;;;;;;7.35;5.75;;;12.40;91.70;;;;;;5071235;28;20024;-54
2023/03/31 13:26:06;;;;;;;5.60;5.00;;;12.40;91.30;;;;;;5065730;28;20044;-52
2023/03/31 13:29:12;;;;;;;9.02;6.00;;;12.50;91.50;;;;;;5071154;28;20079;-57
2023/03/31 13:32:00;;;;;;;6.85;4.82;;;12.50;91.50;;;;;;5070958;28;20036;-55
2023/03/31 13:34:51;;;;;;;7.45;5.97;;;12.50;91.50;;;;;;5070058;28;20059;-56